Savage Opportunity — WDG6313 — position and weather

sailwx.info

Track history (hours):
 
Tides and Currents Weather Stations Pressure Air Temp Water Temp Dewpoint Dewpoint Depression Visibility Wind Speed Wind Dir Waves Ship Positions

Savage Opportunity

Owner: Savage Inland Marine, Gibson, LA. More information available from US FCC via Universal Licensing System and Coast Guard Vessel Documentation Center.

Last reported at 2018-Jan-22 21:47 UTC. Time now 2018-Jan-23 11:53 UTC.
Position N 29°34' W 090°56'.

Length 25 m.

Type: Other ship. MMSI: 367555670.

Date/timePositionNaut miles runAvg speedWind from/ knotsBaromVisibWave heightAir tempDewpointWater temp
2018-Jan-22 21:47N 29°34' W 090°56'4 0.1
2018-Jan-20 22:24N 29°32' W 090°52'1 3.2
2018-Jan-20 22:00N 29°33' W 090°53'5 7.4
2018-Jan-20 21:21N 29°35' W 090°58'56 1.9
2018-Jan-19 16:27N 29°50' W 092°01'3 6.8
2018-Jan-19 16:00N 29°48' W 092°04'3 6.5
2018-Jan-19 15:30N 29°47' W 092°07'3 5.7
2018-Jan-19 15:00N 29°47' W 092°11'2 4.0
2018-Jan-19 14:30N 29°47' W 092°13'3 6.0
2018-Jan-19 14:00N 29°48' W 092°16'3 5.8
2018-Jan-19 13:30N 29°50' W 092°19'35 3.7
2018-Jan-19 03:49N 29°56' W 092°59'1 3.1
2018-Jan-19 03:28N 29°56' W 093°00'3 5.9
2018-Jan-19 02:59N 29°56' W 093°04'3 5.8
2018-Jan-19 02:30N 29°56' W 093°07'3 5.6
2018-Jan-19 02:00N 29°56' W 093°10'3 6.1
2018-Jan-19 01:29N 29°59' W 093°12'2 5.1
2018-Jan-19 01:00N 30°01' W 093°14'2 4.6
2018-Jan-19 00:30N 30°03' W 093°16'2 4.8
2018-Jan-19 00:00N 30°05' W 093°17'1 2.2
2018-Jan-18 23:29N 30°05' W 093°18'0 0.0
2018-Jan-18 23:00N 30°05' W 093°18'0 0.7
2018-Jan-18 22:30N 30°06' W 093°18'1 1.1
2018-Jan-18 22:00N 30°06' W 093°18'0 1.0
2018-Jan-18 21:30N 30°06' W 093°19'0 0.1
2018-Jan-18 21:00N 30°06' W 093°19'0 0.0
2018-Jan-18 20:30N 30°06' W 093°19'0 0.0
2018-Jan-18 20:00N 30°06' W 093°19'0 0.0
2018-Jan-18 19:30N 30°06' W 093°19'0 0.0
2018-Jan-18 19:00N 30°06' W 093°19'0 0.1
2018-Jan-18 18:30N 30°06' W 093°19'0 0.0
2018-Jan-18 18:00N 30°06' W 093°19'0 0.0
2018-Jan-18 17:30N 30°06' W 093°19'0 0.0
2018-Jan-18 17:00N 30°06' W 093°19'0 0.0
2018-Jan-18 16:30N 30°06' W 093°19'0 0.0
2018-Jan-18 16:00N 30°06' W 093°19'0 0.0
2018-Jan-18 15:30N 30°06' W 093°19'0 0.0
2018-Jan-18 15:00N 30°06' W 093°19'0 0.0
2018-Jan-18 14:30N 30°06' W 093°19'0 0.0
2018-Jan-18 14:00N 30°06' W 093°19'2 3.2
2018-Jan-18 13:30N 30°05' W 093°20'1 1.9
2018-Jan-18 13:00N 30°04' W 093°21'2 4.5
2018-Jan-18 12:30N 30°06' W 093°20'2 3.9
2018-Jan-18 12:00N 30°08' W 093°19'0 0.0
2018-Jan-18 11:30N 30°08' W 093°19'0 0.0
2018-Jan-18 11:00N 30°08' W 093°19'0 0.0
2018-Jan-18 10:30N 30°08' W 093°19'0 0.0
2018-Jan-18 10:00N 30°08' W 093°19'0 0.0
2018-Jan-18 09:30N 30°08' W 093°19'0 0.0
2018-Jan-18 09:00N 30°08' W 093°19'0 0.0
2018-Jan-18 08:30N 30°08' W 093°19'0 0.0
2018-Jan-18 08:00N 30°08' W 093°19'0 0.0
2018-Jan-18 07:30N 30°08' W 093°19'0 0.0
2018-Jan-18 07:00N 30°08' W 093°19'0 0.0
2018-Jan-18 06:30N 30°08' W 093°19'0 0.0
2018-Jan-18 06:00N 30°08' W 093°19'0 0.0
2018-Jan-18 05:30N 30°08' W 093°19'0 0.0
2018-Jan-18 05:00N 30°08' W 093°19'0 0.0
2018-Jan-18 04:30N 30°08' W 093°19'0 0.0
2018-Jan-18 04:00N 30°08' W 093°19'0 0.0
2018-Jan-18 03:30N 30°08' W 093°19'0 0.0
2018-Jan-18 03:00N 30°08' W 093°19'1 2.8
2018-Jan-18 02:30N 30°07' W 093°20'2 4.1
2018-Jan-18 02:00N 30°05' W 093°20'0 0.2
2018-Jan-18 01:30N 30°05' W 093°20'0 0.3
2018-Jan-18 01:00N 30°05' W 093°20'2 2.2
2018-Jan-18 00:00N 30°07' W 093°20'0 6.7
2018-Jan-17 23:57N 30°07' W 093°20'  
Track history (hours):
 
Tides and Currents Weather Stations Pressure Air Temp Water Temp Dewpoint Dewpoint Depression Visibility Wind Speed Wind Dir Waves Ship Positions

Savage Opportunity

Owner: Savage Inland Marine, Gibson, LA. More information available from US FCC via Universal Licensing System and Coast Guard Vessel Documentation Center.

Last reported at 2018-Jan-22 21:47 UTC. Time now 2018-Jan-23 11:53 UTC.
Position N 29°34' W 090°56'.

Length 25 m.

Type: Other ship. MMSI: 367555670.

Date/timePositionNaut miles runAvg speedWind from/ knotsBaromVisibWave heightAir tempDewpointWater temp
2018-Jan-22 21:47N 29°34' W 090°56'4 0.1
2018-Jan-20 22:24N 29°32' W 090°52'1 3.2
2018-Jan-20 22:00N 29°33' W 090°53'5 7.4
2018-Jan-20 21:21N 29°35' W 090°58'56 1.9
2018-Jan-19 16:27N 29°50' W 092°01'3 6.8
2018-Jan-19 16:00N 29°48' W 092°04'3 6.5
2018-Jan-19 15:30N 29°47' W 092°07'3 5.7
2018-Jan-19 15:00N 29°47' W 092°11'2 4.0
2018-Jan-19 14:30N 29°47' W 092°13'3 6.0
2018-Jan-19 14:00N 29°48' W 092°16'3 5.8
2018-Jan-19 13:30N 29°50' W 092°19'35 3.7
2018-Jan-19 03:49N 29°56' W 092°59'1 3.1
2018-Jan-19 03:28N 29°56' W 093°00'3 5.9
2018-Jan-19 02:59N 29°56' W 093°04'3 5.8
2018-Jan-19 02:30N 29°56' W 093°07'3 5.6
2018-Jan-19 02:00N 29°56' W 093°10'3 6.1
2018-Jan-19 01:29N 29°59' W 093°12'2 5.1
2018-Jan-19 01:00N 30°01' W 093°14'2 4.6
2018-Jan-19 00:30N 30°03' W 093°16'2 4.8
2018-Jan-19 00:00N 30°05' W 093°17'1 2.2
2018-Jan-18 23:29N 30°05' W 093°18'0 0.0
2018-Jan-18 23:00N 30°05' W 093°18'0 0.7
2018-Jan-18 22:30N 30°06' W 093°18'1 1.1
2018-Jan-18 22:00N 30°06' W 093°18'0 1.0
2018-Jan-18 21:30N 30°06' W 093°19'0 0.1
2018-Jan-18 21:00N 30°06' W 093°19'0 0.0
2018-Jan-18 20:30N 30°06' W 093°19'0 0.0
2018-Jan-18 20:00N 30°06' W 093°19'0 0.0
2018-Jan-18 19:30N 30°06' W 093°19'0 0.0
2018-Jan-18 19:00N 30°06' W 093°19'0 0.1
2018-Jan-18 18:30N 30°06' W 093°19'0 0.0
2018-Jan-18 18:00N 30°06' W 093°19'0 0.0
2018-Jan-18 17:30N 30°06' W 093°19'0 0.0
2018-Jan-18 17:00N 30°06' W 093°19'0 0.0
2018-Jan-18 16:30N 30°06' W 093°19'0 0.0
2018-Jan-18 16:00N 30°06' W 093°19'0 0.0
2018-Jan-18 15:30N 30°06' W 093°19'0 0.0
2018-Jan-18 15:00N 30°06' W 093°19'0 0.0
2018-Jan-18 14:30N 30°06' W 093°19'0 0.0
2018-Jan-18 14:00N 30°06' W 093°19'2 3.2
2018-Jan-18 13:30N 30°05' W 093°20'1 1.9
2018-Jan-18 13:00N 30°04' W 093°21'2 4.5
2018-Jan-18 12:30N 30°06' W 093°20'2 3.9
2018-Jan-18 12:00N 30°08' W 093°19'0 0.0
2018-Jan-18 11:30N 30°08' W 093°19'0 0.0
2018-Jan-18 11:00N 30°08' W 093°19'0 0.0
2018-Jan-18 10:30N 30°08' W 093°19'0 0.0
2018-Jan-18 10:00N 30°08' W 093°19'0 0.0
2018-Jan-18 09:30N 30°08' W 093°19'0 0.0
2018-Jan-18 09:00N 30°08' W 093°19'0 0.0
2018-Jan-18 08:30N 30°08' W 093°19'0 0.0
2018-Jan-18 08:00N 30°08' W 093°19'0 0.0
2018-Jan-18 07:30N 30°08' W 093°19'0 0.0
2018-Jan-18 07:00N 30°08' W 093°19'0 0.0
2018-Jan-18 06:30N 30°08' W 093°19'0 0.0
2018-Jan-18 06:00N 30°08' W 093°19'0 0.0
2018-Jan-18 05:30N 30°08' W 093°19'0 0.0
2018-Jan-18 05:00N 30°08' W 093°19'0 0.0
2018-Jan-18 04:30N 30°08' W 093°19'0 0.0
2018-Jan-18 04:00N 30°08' W 093°19'0 0.0
2018-Jan-18 03:30N 30°08' W 093°19'0 0.0
2018-Jan-18 03:00N 30°08' W 093°19'1 2.8
2018-Jan-18 02:30N 30°07' W 093°20'2 4.1
2018-Jan-18 02:00N 30°05' W 093°20'0 0.2
2018-Jan-18 01:30N 30°05' W 093°20'0 0.3
2018-Jan-18 01:00N 30°05' W 093°20'2 2.2
2018-Jan-18 00:00N 30°07' W 093°20'0 6.7
2018-Jan-17 23:57N 30°07' W 093°20'  

Dump ship's entire track history